createdAt,value
2019-04-30T00:02:05.810Z,23.87
2019-04-30T00:04:40.558Z,22.70
2019-04-30T00:07:10.330Z,21.50
2019-04-30T00:09:40.811Z,23.87
2019-04-30T00:12:09.644Z,21.63
2019-04-30T00:14:41.264Z,21.03
2019-04-30T00:17:10.790Z,24.33
2019-04-30T00:19:38.847Z,24.90
2019-04-30T00:22:07.488Z,25.07
2019-04-30T00:24:39.833Z,26.20
2019-04-30T00:27:06.549Z,23.03
2019-04-30T00:29:35.582Z,22.70
2019-04-30T00:32:07.819Z,23.10
2019-04-30T00:34:37.894Z,26.67
2019-04-30T00:37:07.366Z,32.07
2019-04-30T00:39:35.995Z,27.47
2019-04-30T00:42:05.014Z,33.37
2019-04-30T00:44:35.547Z,28.33
2019-04-30T00:47:08.060Z,30.50
2019-04-30T00:49:35.114Z,25.93
2019-04-30T00:52:05.178Z,31.37
2019-04-30T00:54:35.163Z,20.73
2019-04-30T00:57:07.540Z,24.40
2019-04-30T00:59:35.062Z,25.43
2019-04-30T01:02:30.439Z,29.37
2019-04-30T01:04:52.489Z,34.90
2019-04-30T01:07:21.159Z,29.43
2019-04-30T01:09:50.026Z,24.57
2019-04-30T01:12:24.674Z,25.37
2019-04-30T01:14:49.839Z,25.80
2019-04-30T01:17:18.927Z,28.60
2019-04-30T01:19:51.172Z,31.47
2019-04-30T01:22:21.094Z,26.53
2019-04-30T01:24:49.688Z,26.50
2019-04-30T01:27:18.888Z,28.33
2019-04-30T01:29:48.731Z,41.00
2019-04-30T01:32:20.920Z,42.83
2019-04-30T01:34:49.822Z,43.97
2019-04-30T01:37:20.268Z,34.17
2019-04-30T01:39:49.243Z,28.50
2019-04-30T01:42:18.510Z,34.63
2019-04-30T01:44:50.523Z,27.67
2019-04-30T01:47:21.422Z,29.37
2019-04-30T01:49:49.569Z,30.87
2019-04-30T01:52:19.378Z,28.97
2019-04-30T01:54:49.005Z,30.73
2019-04-30T01:57:34.672Z,33.80
2019-04-30T02:00:14.984Z,38.83
2019-04-30T02:02:49.088Z,38.17
2019-04-30T02:05:18.860Z,31.33
2019-04-30T02:07:48.657Z,27.20
2019-04-30T02:10:18.618Z,29.17
2019-04-30T02:12:49.197Z,34.70
2019-04-30T02:15:19.202Z,32.23
2019-04-30T02:17:50.235Z,35.10
2019-04-30T02:20:18.664Z,33.13
2019-04-30T02:22:48.635Z,37.37
2019-04-30T02:25:17.220Z,37.07
2019-04-30T02:27:45.879Z,36.67
2019-04-30T02:30:14.581Z,43.83
2019-04-30T02:32:43.262Z,48.67
2019-04-30T02:35:16.470Z,42.80
2019-04-30T02:38:02.918Z,48.83
2019-04-30T02:40:34.656Z,42.00
2019-04-30T02:43:03.735Z,38.23
2019-04-30T02:45:33.667Z,37.80
2019-04-30T02:48:04.217Z,38.53
2019-04-30T02:50:35.225Z,39.00
2019-04-30T02:53:06.760Z,44.13
2019-04-30T02:55:44.875Z,44.50
2019-04-30T02:58:13.491Z,44.43
2019-04-30T03:00:42.032Z,41.70
2019-04-30T03:03:11.054Z,46.43
2019-04-30T03:05:39.686Z,45.03
2019-04-30T03:08:09.606Z,47.93
2019-04-30T03:10:40.221Z,42.13
2019-04-30T03:13:09.851Z,51.83
2019-04-30T03:15:39.477Z,55.20
2019-04-30T03:18:12.529Z,64.23
2019-04-30T03:20:51.774Z,57.40
2019-04-30T03:23:20.442Z,61.77
2019-04-30T03:25:50.174Z,54.03
2019-04-30T03:28:20.181Z,51.40
2019-04-30T03:30:56.219Z,51.67
2019-04-30T03:33:22.976Z,52.03
2019-04-30T03:35:54.165Z,56.87
2019-04-30T03:38:20.457Z,48.73
2019-04-30T03:40:50.195Z,58.07
2019-04-30T03:43:20.099Z,56.23
2019-04-30T03:45:49.930Z,55.07
2019-04-30T03:48:20.053Z,49.93
2019-04-30T03:50:55.617Z,49.03
2019-04-30T03:53:20.260Z,59.67
2019-04-30T03:55:50.528Z,48.43
2019-04-30T03:58:21.175Z,46.23
2019-04-30T04:00:54.299Z,43.43
2019-04-30T04:03:22.911Z,47.90
2019-04-30T04:05:53.169Z,50.20
2019-04-30T04:08:29.518Z,44.63
2019-04-30T04:11:00.459Z,47.57
2019-04-30T04:13:29.977Z,44.60
2019-04-30T04:16:00.066Z,51.50
2019-04-30T04:18:30.177Z,63.83
2019-04-30T04:21:08.880Z,43.53
2019-04-30T04:23:32.643Z,40.63
2019-04-30T04:25:59.719Z,39.53
2019-04-30T04:28:29.964Z,34.50
2019-04-30T04:31:00.145Z,27.33
2019-04-30T04:33:29.652Z,33.87
2019-04-30T04:35:59.748Z,33.10
2019-04-30T04:38:30.342Z,27.73
2019-04-30T04:41:02.627Z,22.37
2019-04-30T04:43:30.038Z,26.40
2019-04-30T04:45:59.412Z,22.90
2019-04-30T04:48:29.779Z,24.37
2019-04-30T04:51:00.047Z,19.03
2019-04-30T04:53:30.394Z,24.73
2019-04-30T04:55:59.975Z,27.00
2019-04-30T04:58:30.296Z,24.37
2019-04-30T05:00:59.293Z,25.13
2019-04-30T05:03:32.675Z,27.77
2019-04-30T05:06:02.677Z,24.40
2019-04-30T05:08:31.389Z,29.20
2019-04-30T05:10:59.994Z,27.17
2019-04-30T05:13:29.038Z,27.87
2019-04-30T05:15:59.372Z,23.10
2019-04-30T05:18:29.129Z,24.07
2019-04-30T05:20:59.013Z,19.77
2019-04-30T05:23:29.867Z,23.70
2019-04-30T05:25:58.918Z,19.90
2019-04-30T05:28:29.943Z,25.47
2019-04-30T05:30:59.391Z,20.50
2019-04-30T05:33:28.578Z,26.20
2019-04-30T05:35:59.252Z,19.40
2019-04-30T05:38:29.060Z,24.50
2019-04-30T05:40:59.569Z,25.10
2019-04-30T05:43:29.003Z,23.60
2019-04-30T05:45:58.671Z,24.17
2019-04-30T05:48:28.567Z,25.70
2019-04-30T05:50:58.964Z,27.00
2019-04-30T05:53:28.696Z,22.63
2019-04-30T05:55:59.185Z,24.30
2019-04-30T05:58:29.955Z,31.57
2019-04-30T06:00:59.718Z,34.40
2019-04-30T06:03:32.797Z,29.00
2019-04-30T06:05:59.049Z,28.57
2019-04-30T06:08:29.331Z,30.87
2019-04-30T06:11:11.660Z,28.90
2019-04-30T06:14:01.218Z,27.00
2019-04-30T06:16:30.678Z,29.17
2019-04-30T06:18:59.302Z,28.00
2019-04-30T06:21:29.514Z,24.07
2019-04-30T06:23:59.149Z,19.43
2019-04-30T06:26:29.573Z,24.23
2019-04-30T06:28:59.279Z,17.77
2019-04-30T06:31:34.329Z,24.53
2019-04-30T06:33:58.685Z,22.17
2019-04-30T06:36:28.607Z,19.67
2019-04-30T06:38:58.968Z,21.73
2019-04-30T06:41:29.629Z,22.83
2019-04-30T06:43:58.781Z,18.70
2019-04-30T06:46:28.599Z,22.53
2019-04-30T06:48:59.403Z,28.80
2019-04-30T06:51:30.541Z,33.63
2019-04-30T06:53:58.699Z,18.43
2019-04-30T06:56:28.891Z,24.97
2019-04-30T06:58:59.048Z,33.20
2019-04-30T07:01:29.090Z,22.93
2019-04-30T07:04:00.788Z,19.17
2019-04-30T07:06:32.326Z,19.70
2019-04-30T07:09:16.654Z,24.57
2019-04-30T07:11:59.371Z,22.83
2019-04-30T07:14:29.227Z,23.93
2019-04-30T07:16:59.419Z,18.67
2019-04-30T07:19:34.576Z,23.50
2019-04-30T07:21:59.425Z,25.97
2019-04-30T07:24:29.639Z,27.07
2019-04-30T07:27:02.584Z,25.67
2019-04-30T07:29:29.587Z,31.00
2019-04-30T07:31:59.232Z,25.83
2019-04-30T07:34:30.273Z,21.03
2019-04-30T07:37:11.784Z,23.73
2019-04-30T07:39:33.254Z,23.42
2019-04-30T07:41:59.958Z,29.73
2019-04-30T07:44:35.482Z,21.68
2019-04-30T07:46:59.384Z,21.37
2019-04-30T07:49:47.042Z,24.17
2019-04-30T07:52:03.318Z,22.75
2019-04-30T07:54:32.208Z,20.30
2019-04-30T07:57:00.775Z,22.52
2019-04-30T07:59:30.200Z,18.27
2019-04-30T08:02:07.507Z,18.87
2019-04-30T08:04:46.668Z,22.73
2019-04-30T08:07:15.393Z,25.20
2019-04-30T08:09:43.998Z,19.98
2019-04-30T08:12:21.767Z,18.67
2019-04-30T08:14:43.146Z,22.00
2019-04-30T08:17:11.708Z,27.05
2019-04-30T08:19:41.049Z,29.00
2019-04-30T08:22:09.781Z,19.98
2019-04-30T08:24:39.088Z,18.92
2019-04-30T08:27:09.766Z,19.87
2019-04-30T08:29:39.468Z,26.85
2019-04-30T08:32:11.256Z,23.67
2019-04-30T08:34:39.834Z,23.18
2019-04-30T08:37:17.079Z,23.67
2019-04-30T08:39:39.753Z,19.10
2019-04-30T08:42:08.984Z,17.70
2019-04-30T08:44:39.516Z,21.10
2019-04-30T08:47:08.679Z,23.42
2019-04-30T08:49:37.978Z,16.57
2019-04-30T08:52:07.683Z,18.82
2019-04-30T08:54:36.165Z,21.97
2019-04-30T08:57:08.618Z,24.80
2019-04-30T08:59:39.367Z,18.30
2019-04-30T09:02:16.083Z,15.60
2019-04-30T09:04:38.861Z,17.95
2019-04-30T09:07:10.086Z,19.27
2019-04-30T09:09:38.959Z,25.02
2019-04-30T09:12:09.932Z,22.50
2019-04-30T09:14:40.577Z,17.63
2019-04-30T09:17:11.988Z,25.17
2019-04-30T09:19:40.595Z,20.08
2019-04-30T09:22:15.011Z,22.98
2019-04-30T09:24:39.960Z,16.37
2019-04-30T09:27:10.610Z,20.52
2019-04-30T09:29:39.174Z,15.98
2019-04-30T09:32:09.230Z,22.42
2019-04-30T09:34:38.440Z,20.82
2019-04-30T09:37:08.720Z,19.48
2019-04-30T09:39:39.245Z,13.30
2019-04-30T09:42:09.247Z,18.92
2019-04-30T09:44:39.027Z,18.77
2019-04-30T09:47:08.881Z,17.62
2019-04-30T09:49:38.816Z,24.40
2019-04-30T09:52:09.234Z,17.37
2019-04-30T09:54:39.805Z,18.67
2019-04-30T09:57:08.779Z,18.45
2019-04-30T09:59:38.908Z,15.53
2019-04-30T10:02:09.206Z,24.98
2019-04-30T10:04:39.791Z,11.60
2019-04-30T10:07:09.648Z,15.55
2019-04-30T10:09:38.201Z,15.63
2019-04-30T10:12:11.494Z,14.65
2019-04-30T10:14:41.063Z,13.83
2019-04-30T10:17:29.580Z,18.60
2019-04-30T10:19:58.254Z,19.50
2019-04-30T10:22:26.804Z,19.10
2019-04-30T10:24:55.441Z,14.43
2019-04-30T10:27:25.253Z,15.10
2019-04-30T10:29:54.427Z,17.73
2019-04-30T10:32:22.989Z,15.03
2019-04-30T10:34:51.623Z,12.95
2019-04-30T10:37:21.276Z,18.25
2019-04-30T10:39:49.928Z,9.88
2019-04-30T10:42:18.615Z,12.30
2019-04-30T10:44:47.353Z,20.65
2019-04-30T10:47:16.254Z,16.77
2019-04-30T10:49:44.882Z,16.02
2019-04-30T10:52:13.506Z,13.80
2019-04-30T10:54:42.133Z,18.32
2019-04-30T10:57:10.765Z,27.45
2019-04-30T10:59:39.395Z,18.07
2019-04-30T11:02:09.046Z,13.95
2019-04-30T11:04:37.724Z,13.30
2019-04-30T11:07:08.533Z,13.83
2019-04-30T11:09:39.382Z,11.38
2019-04-30T11:12:09.512Z,12.03
2019-04-30T11:14:38.258Z,12.47
2019-04-30T11:17:07.130Z,19.90
2019-04-30T11:19:36.064Z,11.83
2019-04-30T11:22:05.039Z,10.93
2019-04-30T11:24:38.065Z,10.75
2019-04-30T11:27:04.540Z,8.55
2019-04-30T11:29:33.520Z,11.15
2019-04-30T11:32:04.259Z,13.80
2019-04-30T11:34:32.934Z,9.98
2019-04-30T11:37:01.659Z,14.43
2019-04-30T11:39:30.458Z,10.43
2019-04-30T11:41:59.103Z,7.78
2019-04-30T11:44:31.337Z,12.68
2019-04-30T11:47:01.045Z,20.77
2019-04-30T11:49:32.406Z,8.30
2019-04-30T11:52:01.030Z,14.90
2019-04-30T11:54:29.951Z,12.25
2019-04-30T11:56:58.947Z,12.70
2019-04-30T11:59:29.619Z,8.30
2019-04-30T12:01:59.573Z,11.10
2019-04-30T12:04:29.845Z,11.15
2019-04-30T12:07:00.211Z,11.88
2019-04-30T12:09:48.482Z,15.88
2019-04-30T12:12:18.872Z,33.92
2019-04-30T12:14:49.379Z,10.90
2019-04-30T12:17:18.024Z,13.98
2019-04-30T12:19:48.717Z,20.40
2019-04-30T12:22:19.982Z,9.53
2019-04-30T12:24:48.867Z,12.43
2019-04-30T12:27:18.706Z,12.95
2019-04-30T12:29:49.467Z,8.88
2019-04-30T12:32:19.158Z,12.98
2019-04-30T12:34:48.093Z,15.55
2019-04-30T12:37:16.719Z,24.32
2019-04-30T12:39:45.325Z,18.45
2019-04-30T12:42:13.942Z,28.77
2019-04-30T12:44:42.649Z,11.03
2019-04-30T12:47:11.142Z,16.48
2019-04-30T12:49:50.709Z,10.70
2019-04-30T12:52:26.809Z,11.97
2019-04-30T12:54:59.699Z,9.53
2019-04-30T12:57:32.253Z,12.03
2019-04-30T13:00:00.925Z,9.60
2019-04-30T13:02:29.615Z,13.13
2019-04-30T13:05:00.475Z,6.87
2019-04-30T13:07:30.366Z,5.65
2019-04-30T13:10:01.539Z,3.10
2019-04-30T13:12:30.431Z,7.50
2019-04-30T13:14:59.161Z,3.52
2019-04-30T13:17:27.746Z,6.83
2019-04-30T13:19:56.368Z,26.77
2019-04-30T13:22:25.091Z,6.90
2019-04-30T13:24:53.783Z,5.83
2019-04-30T13:27:22.689Z,6.25
2019-04-30T13:29:52.954Z,5.40
2019-04-30T13:32:29.613Z,12.37
2019-04-30T13:34:53.496Z,8.73
2019-04-30T13:37:21.978Z,5.55
2019-04-30T13:39:54.965Z,3.95
2019-04-30T13:42:29.371Z,2.05
2019-04-30T13:44:58.143Z,1.92
2019-04-30T13:47:26.806Z,8.25
2019-04-30T13:49:55.406Z,6.03
2019-04-30T13:52:28.900Z,5.72
2019-04-30T13:54:57.180Z,7.65
2019-04-30T13:57:25.748Z,4.67
2019-04-30T13:59:54.374Z,5.65
2019-04-30T14:02:22.963Z,4.97
2019-04-30T14:05:02.251Z,3.72
2019-04-30T14:07:49.554Z,4.60
2019-04-30T14:10:19.577Z,4.05
2019-04-30T14:12:52.479Z,7.60
2019-04-30T14:15:21.275Z,6.00
2019-04-30T14:17:49.924Z,4.25
2019-04-30T14:20:18.650Z,2.92
2019-04-30T14:22:47.284Z,3.65
2019-04-30T14:25:16.002Z,5.55
2019-04-30T14:27:52.313Z,10.55
2019-04-30T14:30:16.341Z,3.25
2019-04-30T14:32:44.888Z,7.20
2019-04-30T14:35:13.660Z,4.37
2019-04-30T14:37:42.280Z,4.45
2019-04-30T14:40:13.054Z,6.67
2019-04-30T14:42:46.233Z,4.80
2019-04-30T14:45:17.355Z,6.30
2019-04-30T14:47:50.686Z,5.70
2019-04-30T14:50:25.883Z,5.70
2019-04-30T14:52:56.151Z,13.03
2019-04-30T14:55:29.523Z,9.57
2019-04-30T14:57:59.764Z,27.43
2019-04-30T15:00:49.707Z,20.77
2019-04-30T15:03:22.630Z,6.57
2019-04-30T15:05:51.752Z,9.60
2019-04-30T15:08:20.539Z,12.27
2019-04-30T15:10:49.287Z,7.13
2019-04-30T15:13:19.505Z,2.83
2019-04-30T15:15:49.136Z,4.93
2019-04-30T15:18:19.153Z,5.13
2019-04-30T15:20:49.792Z,3.40
2019-04-30T15:23:22.731Z,4.57
2019-04-30T15:25:51.316Z,2.43
2019-04-30T15:28:19.825Z,2.30
2019-04-30T15:30:51.187Z,2.27
2019-04-30T15:33:33.374Z,3.73
2019-04-30T15:36:02.663Z,4.03
2019-04-30T15:38:32.859Z,2.13
2019-04-30T15:41:01.456Z,1.83
2019-04-30T15:43:30.149Z,1.53
2019-04-30T15:45:58.777Z,2.43
2019-04-30T15:48:27.429Z,2.00
2019-04-30T15:50:55.998Z,6.40
2019-04-30T15:53:24.635Z,2.57
2019-04-30T15:56:00.643Z,1.40
2019-04-30T15:58:31.011Z,7.87
2019-04-30T16:01:00.016Z,3.67
2019-04-30T16:03:39.405Z,3.60
2019-04-30T16:06:08.368Z,3.17
2019-04-30T16:08:54.915Z,3.73
2019-04-30T16:11:31.001Z,2.13
2019-04-30T16:14:09.819Z,3.13
2019-04-30T16:16:40.163Z,6.73
2019-04-30T16:19:09.207Z,3.87
2019-04-30T16:21:37.936Z,3.10
2019-04-30T16:26:53.019Z,2.60
2019-04-30T16:29:21.655Z,4.83
2019-04-30T16:31:53.417Z,2.43
2019-04-30T16:34:22.067Z,5.67
2019-04-30T16:36:50.694Z,2.20
2019-04-30T16:39:19.392Z,1.00
2019-04-30T16:41:49.560Z,5.07
2019-04-30T16:44:21.315Z,4.70
2019-04-30T16:46:52.640Z,8.97
2019-04-30T16:49:28.917Z,4.40
2019-04-30T16:52:01.207Z,3.67
2019-04-30T16:54:28.535Z,3.43
2019-04-30T16:57:04.125Z,2.87
2019-04-30T16:59:30.612Z,4.57
2019-04-30T17:02:00.448Z,3.43
2019-04-30T17:04:39.806Z,5.53
2019-04-30T17:07:13.076Z,6.40
2019-04-30T17:09:50.991Z,6.33
2019-04-30T17:12:26.993Z,6.83
2019-04-30T17:15:13.435Z,8.13
2019-04-30T17:17:42.146Z,7.80
2019-04-30T17:20:10.988Z,10.47
2019-04-30T17:22:39.600Z,12.87
2019-04-30T17:25:09.041Z,14.50
2019-04-30T17:27:39.260Z,11.57
2019-04-30T17:30:11.005Z,13.80
2019-04-30T17:32:39.715Z,8.67
2019-04-30T17:35:11.271Z,5.10
2019-04-30T17:37:39.953Z,5.07
2019-04-30T17:40:12.412Z,4.20
2019-04-30T17:42:40.975Z,4.13
2019-04-30T17:45:10.115Z,2.53
2019-04-30T17:47:38.677Z,2.33
2019-04-30T17:50:10.815Z,2.63
2019-04-30T17:52:39.445Z,2.47
2019-04-30T17:55:09.674Z,2.93
2019-04-30T17:57:40.235Z,6.83
2019-04-30T18:00:18.893Z,1.83
2019-04-30T18:02:45.749Z,5.07
2019-04-30T18:05:14.373Z,5.17
2019-04-30T18:07:42.939Z,1.70
2019-04-30T18:10:13.186Z,2.70
2019-04-30T18:12:44.778Z,5.07
2019-04-30T18:15:15.796Z,3.37
2019-04-30T18:17:46.067Z,4.23
2019-04-30T18:20:25.526Z,7.10
2019-04-30T18:22:58.571Z,2.10
2019-04-30T18:25:37.759Z,4.17
2019-04-30T18:28:09.262Z,5.00
2019-04-30T18:30:39.356Z,2.97
2019-04-30T18:33:10.767Z,1.50
2019-04-30T18:35:39.410Z,4.40
2019-04-30T18:38:09.801Z,4.40
2019-04-30T18:40:39.788Z,4.10
2019-04-30T18:43:08.574Z,5.40
2019-04-30T18:45:39.393Z,6.53
2019-04-30T18:48:09.569Z,4.50
2019-04-30T18:50:38.091Z,7.20
2019-04-30T18:53:08.726Z,3.10
2019-04-30T18:55:37.369Z,2.97
2019-04-30T18:58:06.065Z,4.87
2019-04-30T19:00:42.385Z,3.00
2019-04-30T19:03:11.412Z,4.20
2019-04-30T19:05:41.687Z,4.87
2019-04-30T19:08:12.009Z,4.47
2019-04-30T19:10:58.868Z,8.30
2019-04-30T19:13:46.650Z,6.60
2019-04-30T19:16:26.177Z,5.73
2019-04-30T19:19:02.294Z,3.97
2019-04-30T19:21:33.856Z,4.27
2019-04-30T19:24:02.251Z,3.63
2019-04-30T19:26:33.908Z,2.77
2019-04-30T19:29:02.523Z,5.83
2019-04-30T19:31:31.097Z,11.77
2019-04-30T19:33:59.807Z,10.47
2019-04-30T19:36:37.343Z,6.27
2019-04-30T19:38:59.748Z,13.07
2019-04-30T19:41:28.783Z,13.43
2019-04-30T19:43:57.390Z,13.03
2019-04-30T19:46:25.997Z,7.60
2019-04-30T19:48:54.563Z,6.30
2019-04-30T19:51:23.190Z,8.77
2019-04-30T19:53:51.874Z,16.63
2019-04-30T19:56:20.728Z,15.90
2019-04-30T19:59:01.515Z,16.47
2019-04-30T20:01:19.659Z,3.57
2019-04-30T20:03:48.288Z,1.40
2019-04-30T20:06:19.005Z,2.80
2019-04-30T20:08:47.244Z,1.27
2019-04-30T20:11:15.881Z,1.77
2019-04-30T20:13:44.561Z,2.37
2019-04-30T20:16:13.117Z,3.27
2019-04-30T20:18:41.608Z,1.30
2019-04-30T20:21:11.908Z,1.60
2019-04-30T20:23:40.464Z,3.13
2019-04-30T20:26:09.109Z,3.27
2019-04-30T20:28:41.394Z,1.93
2019-04-30T20:31:09.155Z,4.90
2019-04-30T20:33:38.993Z,2.63
2019-04-30T20:36:09.199Z,3.50
2019-04-30T20:38:42.771Z,3.90
2019-04-30T20:41:12.445Z,3.23
2019-04-30T20:43:41.008Z,1.80
2019-04-30T20:46:09.682Z,3.63
2019-04-30T20:48:39.297Z,3.97
2019-04-30T20:51:09.557Z,3.40
2019-04-30T20:53:39.070Z,2.93
2019-04-30T20:56:09.212Z,6.53
2019-04-30T20:58:39.087Z,4.70
2019-04-30T21:01:09.562Z,2.30
2019-04-30T21:03:39.535Z,3.10
2019-04-30T21:06:08.904Z,3.30
2019-04-30T21:08:37.549Z,4.40
2019-04-30T21:11:06.213Z,2.37
2019-04-30T21:13:34.839Z,2.53
2019-04-30T21:16:03.480Z,3.20
2019-04-30T21:18:32.614Z,3.83
2019-04-30T21:21:01.288Z,3.77
2019-04-30T21:23:29.923Z,4.53
2019-04-30T21:25:59.056Z,6.57
2019-04-30T21:28:29.656Z,5.83
2019-04-30T21:30:59.809Z,3.73
2019-04-30T21:33:41.872Z,4.77
2019-04-30T21:36:12.081Z,4.23
2019-04-30T21:38:40.709Z,4.70
2019-04-30T21:41:09.965Z,2.80
2019-04-30T21:43:38.583Z,3.40
2019-04-30T21:46:09.368Z,3.50
2019-04-30T21:48:38.848Z,3.03
2019-04-30T21:51:09.443Z,2.77
2019-04-30T21:53:39.619Z,2.97
2019-04-30T21:56:08.339Z,4.40
2019-04-30T21:58:36.835Z,3.67
2019-04-30T22:01:13.287Z,6.77
2019-04-30T22:03:43.555Z,4.10
2019-04-30T22:06:12.460Z,6.20
2019-04-30T22:08:41.063Z,5.33
2019-04-30T22:11:09.878Z,3.87
2019-04-30T22:13:39.625Z,6.90
2019-04-30T22:16:08.990Z,3.87
2019-04-30T22:18:37.618Z,4.70
2019-04-30T22:21:06.288Z,2.77
2019-04-30T22:23:34.921Z,6.17
2019-04-30T22:26:03.555Z,5.27
2019-04-30T22:28:32.225Z,2.50
2019-04-30T22:31:00.792Z,6.70
2019-04-30T22:33:29.437Z,3.63
2019-04-30T22:35:59.711Z,5.83
2019-04-30T22:38:39.171Z,4.40
2019-04-30T22:41:08.876Z,3.50
2019-04-30T22:43:37.485Z,4.23
2019-04-30T22:46:10.767Z,5.73
2019-04-30T22:48:39.401Z,5.80
2019-04-30T22:51:08.080Z,5.50
2019-04-30T22:53:36.573Z,3.30
2019-04-30T22:56:05.243Z,4.47
2019-04-30T22:58:33.816Z,2.50
2019-04-30T23:01:04.133Z,3.73
2019-04-30T23:03:34.046Z,4.77
2019-04-30T23:06:02.730Z,3.43
2019-04-30T23:08:31.368Z,2.43
2019-04-30T23:11:00.214Z,4.53
2019-04-30T23:13:28.900Z,3.23
2019-04-30T23:15:57.546Z,6.07
2019-04-30T23:18:26.104Z,4.43
2019-04-30T23:20:54.712Z,3.40
2019-04-30T23:23:23.346Z,7.30
2019-04-30T23:25:51.987Z,4.30
2019-04-30T23:28:20.587Z,3.23
2019-04-30T23:30:49.152Z,3.90
2019-04-30T23:33:17.795Z,3.10
2019-04-30T23:35:46.398Z,2.50
2019-04-30T23:38:15.039Z,5.60
2019-04-30T23:40:46.804Z,5.77
2019-04-30T23:43:15.372Z,3.53
2019-04-30T23:45:44.750Z,6.40
2019-04-30T23:48:13.696Z,4.67
2019-04-30T23:50:42.339Z,5.33
2019-04-30T23:53:11.186Z,7.90
2019-04-30T23:55:39.839Z,4.27
2019-04-30T23:58:08.515Z,4.60
